Suffield, Ohio
Current Conditions -  °F | °C
As of 1:54 PM on Friday 24 Oct 2014 (Local Time) from KAKR Reporting Station
Clear Clear  
Wind Chill: 60°   Ceiling: Unl
Heat Index: 60°   Visibility: 10mi
Dew Point: 39°   Wind: 5mph
Humidity: 46%   Direction: 300°WNW
Pressure: 30.05"   Gusts: NA
Location:  41.0385°N, 81.341°W
Report Text: KAKR 241754Z AUTO 30004KT 10SM CLR 16/04 A3005 RMK AO2 SLP177 T01560039 10156 20028 58017
Loading
Personal Weather Stations






























Interactive Weather Map
Tropical Storm Tracking
New forecast layout! Learn more

10-Day Weather Forecast

Advertisements
Track Severe Weather on mobile